sensor_id;sensor_type;location;lat;lon;timestamp;temperature;humidity
54461;DHT22;69977;49.414;11.010;2024-03-22T00:01:51;5.00;99.90
54461;DHT22;69977;49.414;11.010;2024-03-22T00:04:17;4.90;99.90
54461;DHT22;69977;49.414;11.010;2024-03-22T00:06:45;4.80;99.90
54461;DHT22;69977;49.414;11.010;2024-03-22T00:09:11;4.80;99.90
54461;DHT22;69977;49.414;11.010;2024-03-22T00:11:39;4.70;99.90
54461;DHT22;69977;49.414;11.010;2024-03-22T00:14:05;4.80;99.90
54461;DHT22;69977;49.414;11.010;2024-03-22T00:16:31;4.60;99.90
54461;DHT22;69977;49.414;11.010;2024-03-22T00:18:57;4.70;99.90
54461;DHT22;69977;49.414;11.010;2024-03-22T00:21:23;4.60;99.90
54461;DHT22;69977;49.414;11.010;2024-03-22T00:23:49;4.70;99.90
54461;DHT22;69977;49.414;11.010;2024-03-22T00:26:15;4.60;99.90
54461;DHT22;69977;49.414;11.010;2024-03-22T00:28:41;4.50;99.90
54461;DHT22;69977;49.414;11.010;2024-03-22T00:31:07;4.40;99.90
54461;DHT22;69977;49.414;11.010;2024-03-22T00:33:34;4.40;99.90
54461;DHT22;69977;49.414;11.010;2024-03-22T00:36:00;4.30;99.90
54461;DHT22;69977;49.414;11.010;2024-03-22T00:38:25;4.30;99.90
54461;DHT22;69977;49.414;11.010;2024-03-22T00:40:51;4.20;99.90
54461;DHT22;69977;49.414;11.010;2024-03-22T00:43:17;4.10;99.90
54461;DHT22;69977;49.414;11.010;2024-03-22T00:45:43;4.10;99.90
54461;DHT22;69977;49.414;11.010;2024-03-22T00:48:09;4.10;99.90
54461;DHT22;69977;49.414;11.010;2024-03-22T00:50:35;4.10;99.90
54461;DHT22;69977;49.414;11.010;2024-03-22T00:53:01;4.00;99.90
54461;DHT22;69977;49.414;11.010;2024-03-22T00:55:29;3.90;99.90
54461;DHT22;69977;49.414;11.010;2024-03-22T00:57:55;3.80;99.90
54461;DHT22;69977;49.414;11.010;2024-03-22T01:00:21;3.80;99.90
54461;DHT22;69977;49.414;11.010;2024-03-22T01:02:47;3.80;99.90
54461;DHT22;69977;49.414;11.010;2024-03-22T01:05:13;3.80;99.90
54461;DHT22;69977;49.414;11.010;2024-03-22T01:07:40;3.80;99.90
54461;DHT22;69977;49.414;11.010;2024-03-22T01:10:06;4.10;99.90
54461;DHT22;69977;49.414;11.010;2024-03-22T01:12:32;4.20;99.90
54461;DHT22;69977;49.414;11.010;2024-03-22T01:14:58;4.00;99.90
54461;DHT22;69977;49.414;11.010;2024-03-22T01:17:24;3.90;99.90
54461;DHT22;69977;49.414;11.010;2024-03-22T01:19:50;3.80;99.90
54461;DHT22;69977;49.414;11.010;2024-03-22T01:22:17;3.60;99.90
54461;DHT22;69977;49.414;11.010;2024-03-22T01:24:44;3.60;99.90
54461;DHT22;69977;49.414;11.010;2024-03-22T01:27:11;3.50;99.90
54461;DHT22;69977;49.414;11.010;2024-03-22T01:29:37;3.40;99.90
54461;DHT22;69977;49.414;11.010;2024-03-22T01:32:03;3.40;99.90
54461;DHT22;69977;49.414;11.010;2024-03-22T01:34:29;3.40;99.90
54461;DHT22;69977;49.414;11.010;2024-03-22T01:36:55;3.30;99.90
54461;DHT22;69977;49.414;11.010;2024-03-22T01:39:21;3.40;99.90
54461;DHT22;69977;49.414;11.010;2024-03-22T01:41:50;3.40;99.90
54461;DHT22;69977;49.414;11.010;2024-03-22T01:44:17;3.60;99.90
54461;DHT22;69977;49.414;11.010;2024-03-22T01:46:44;3.60;99.90
54461;DHT22;69977;49.414;11.010;2024-03-22T01:49:12;3.60;99.90
54461;DHT22;69977;49.414;11.010;2024-03-22T01:51:42;3.50;99.90
54461;DHT22;69977;49.414;11.010;2024-03-22T01:54:09;3.40;99.90
54461;DHT22;69977;49.414;11.010;2024-03-22T01:56:39;3.20;99.90
54461;DHT22;69977;49.414;11.010;2024-03-22T01:59:06;3.20;99.90
54461;DHT22;69977;49.414;11.010;2024-03-22T02:01:33;3.30;99.90
54461;DHT22;69977;49.414;11.010;2024-03-22T02:03:59;3.60;99.90
54461;DHT22;69977;49.414;11.010;2024-03-22T02:06:25;3.50;99.90
54461;DHT22;69977;49.414;11.010;2024-03-22T02:08:51;3.20;99.90
54461;DHT22;69977;49.414;11.010;2024-03-22T02:11:17;3.10;99.90
54461;DHT22;69977;49.414;11.010;2024-03-22T02:13:42;3.00;99.90
54461;DHT22;69977;49.414;11.010;2024-03-22T02:16:09;2.90;99.90
54461;DHT22;69977;49.414;11.010;2024-03-22T02:18:35;2.90;99.90
54461;DHT22;69977;49.414;11.010;2024-03-22T02:21:01;2.90;99.90
54461;DHT22;69977;49.414;11.010;2024-03-22T02:23:37;3.00;99.90
54461;DHT22;69977;49.414;11.010;2024-03-22T02:26:04;3.20;99.90
54461;DHT22;69977;49.414;11.010;2024-03-22T02:28:31;3.00;99.90
54461;DHT22;69977;49.414;11.010;2024-03-22T02:31:02;2.90;99.90
54461;DHT22;69977;49.414;11.010;2024-03-22T02:33:28;2.90;99.90
54461;DHT22;69977;49.414;11.010;2024-03-22T02:35:54;2.90;99.90
54461;DHT22;69977;49.414;11.010;2024-03-22T02:38:20;2.80;99.90
54461;DHT22;69977;49.414;11.010;2024-03-22T02:40:47;2.80;99.90
54461;DHT22;69977;49.414;11.010;2024-03-22T02:43:14;2.60;99.90
54461;DHT22;69977;49.414;11.010;2024-03-22T02:45:40;2.60;99.90
54461;DHT22;69977;49.414;11.010;2024-03-22T02:48:06;2.60;99.90
54461;DHT22;69977;49.414;11.010;2024-03-22T02:50:36;2.60;99.90
54461;DHT22;69977;49.414;11.010;2024-03-22T02:53:03;2.80;99.90
54461;DHT22;69977;49.414;11.010;2024-03-22T02:55:29;2.70;99.90
54461;DHT22;69977;49.414;11.010;2024-03-22T02:57:56;2.60;99.90
54461;DHT22;69977;49.414;11.010;2024-03-22T03:00:23;2.50;99.90
54461;DHT22;69977;49.414;11.010;2024-03-22T03:02:49;2.40;99.90
54461;DHT22;69977;49.414;11.010;2024-03-22T03:05:15;2.50;99.90
54461;DHT22;69977;49.414;11.010;2024-03-22T03:07:41;2.40;99.90
54461;DHT22;69977;49.414;11.010;2024-03-22T03:10:07;2.40;99.90
54461;DHT22;69977;49.414;11.010;2024-03-22T03:12:33;2.40;99.90
54461;DHT22;69977;49.414;11.010;2024-03-22T03:14:59;2.30;99.90
54461;DHT22;69977;49.414;11.010;2024-03-22T03:17:25;2.30;99.90
54461;DHT22;69977;49.414;11.010;2024-03-22T03:19:51;2.30;99.90
54461;DHT22;69977;49.414;11.010;2024-03-22T03:22:17;2.30;99.90
54461;DHT22;69977;49.414;11.010;2024-03-22T03:24:43;2.30;99.90
54461;DHT22;69977;49.414;11.010;2024-03-22T03:27:09;2.30;99.90
54461;DHT22;69977;49.414;11.010;2024-03-22T03:29:35;2.20;99.90
54461;DHT22;69977;49.414;11.010;2024-03-22T03:32:01;2.20;99.90
54461;DHT22;69977;49.414;11.010;2024-03-22T03:34:27;2.40;99.90
54461;DHT22;69977;49.414;11.010;2024-03-22T03:36:53;2.40;99.90
54461;DHT22;69977;49.414;11.010;2024-03-22T03:39:18;2.30;99.90
54461;DHT22;69977;49.414;11.010;2024-03-22T03:41:44;2.20;99.90
54461;DHT22;69977;49.414;11.010;2024-03-22T03:44:10;2.10;99.90
54461;DHT22;69977;49.414;11.010;2024-03-22T03:46:36;2.10;99.90
54461;DHT22;69977;49.414;11.010;2024-03-22T03:49:02;2.10;99.90
54461;DHT22;69977;49.414;11.010;2024-03-22T03:51:28;2.00;99.90
54461;DHT22;69977;49.414;11.010;2024-03-22T03:53:53;2.00;99.90
54461;DHT22;69977;49.414;11.010;2024-03-22T03:56:19;2.00;99.90
54461;DHT22;69977;49.414;11.010;2024-03-22T03:58:48;2.10;99.90
54461;DHT22;69977;49.414;11.010;2024-03-22T04:01:14;2.20;99.90
54461;DHT22;69977;49.414;11.010;2024-03-22T04:03:40;2.10;99.90
54461;DHT22;69977;49.414;11.010;2024-03-22T04:06:05;2.10;99.90
54461;DHT22;69977;49.414;11.010;2024-03-22T04:08:31;2.20;99.90
54461;DHT22;69977;49.414;11.010;2024-03-22T04:10:57;2.10;99.90
54461;DHT22;69977;49.414;11.010;2024-03-22T04:13:27;2.00;99.90
54461;DHT22;69977;49.414;11.010;2024-03-22T04:15:53;2.00;99.90
54461;DHT22;69977;49.414;11.010;2024-03-22T04:18:20;2.20;99.90
54461;DHT22;69977;49.414;11.010;2024-03-22T04:20:58;2.40;99.90
54461;DHT22;69977;49.414;11.010;2024-03-22T04:23:27;2.30;99.90
54461;DHT22;69977;49.414;11.010;2024-03-22T04:25:58;2.00;99.90
54461;DHT22;69977;49.414;11.010;2024-03-22T04:28:28;1.90;99.90
54461;DHT22;69977;49.414;11.010;2024-03-22T04:31:05;1.90;99.90
54461;DHT22;69977;49.414;11.010;2024-03-22T04:33:32;1.80;99.90
54461;DHT22;69977;49.414;11.010;2024-03-22T04:35:58;1.80;99.90
54461;DHT22;69977;49.414;11.010;2024-03-22T04:38:25;1.80;99.90
54461;DHT22;69977;49.414;11.010;2024-03-22T04:40:52;1.80;99.90
54461;DHT22;69977;49.414;11.010;2024-03-22T04:43:17;1.80;99.90
54461;DHT22;69977;49.414;11.010;2024-03-22T04:45:44;1.80;99.90
54461;DHT22;69977;49.414;11.010;2024-03-22T04:48:11;2.00;99.90
54461;DHT22;69977;49.414;11.010;2024-03-22T04:50:38;2.00;99.90
54461;DHT22;69977;49.414;11.010;2024-03-22T04:53:03;1.90;99.90
54461;DHT22;69977;49.414;11.010;2024-03-22T04:55:31;2.00;99.90
54461;DHT22;69977;49.414;11.010;2024-03-22T04:57:58;2.00;99.90
54461;DHT22;69977;49.414;11.010;2024-03-22T05:00:24;2.00;99.90
54461;DHT22;69977;49.414;11.010;2024-03-22T05:02:53;1.90;99.90
54461;DHT22;69977;49.414;11.010;2024-03-22T05:05:19;1.90;99.90
54461;DHT22;69977;49.414;11.010;2024-03-22T05:07:45;1.90;99.90
54461;DHT22;69977;49.414;11.010;2024-03-22T05:10:11;1.80;99.90
54461;DHT22;69977;49.414;11.010;2024-03-22T05:12:38;1.80;99.90
54461;DHT22;69977;49.414;11.010;2024-03-22T05:15:04;1.80;99.90
54461;DHT22;69977;49.414;11.010;2024-03-22T05:17:30;1.70;99.90
54461;DHT22;69977;49.414;11.010;2024-03-22T05:19:58;1.70;99.90
54461;DHT22;69977;49.414;11.010;2024-03-22T05:22:24;1.70;99.90
54461;DHT22;69977;49.414;11.010;2024-03-22T05:24:50;1.70;99.90
54461;DHT22;69977;49.414;11.010;2024-03-22T05:27:17;1.60;99.90
54461;DHT22;69977;49.414;11.010;2024-03-22T05:29:43;1.70;99.90
54461;DHT22;69977;49.414;11.010;2024-03-22T05:32:09;1.70;99.90
54461;DHT22;69977;49.414;11.010;2024-03-22T05:34:35;1.70;99.90
54461;DHT22;69977;49.414;11.010;2024-03-22T05:37:02;1.70;99.90
54461;DHT22;69977;49.414;11.010;2024-03-22T05:39:28;1.70;99.90
54461;DHT22;69977;49.414;11.010;2024-03-22T05:41:54;1.70;99.90
54461;DHT22;69977;49.414;11.010;2024-03-22T05:44:21;1.70;99.90
54461;DHT22;69977;49.414;11.010;2024-03-22T05:46:47;1.70;99.90
54461;DHT22;69977;49.414;11.010;2024-03-22T05:49:13;1.80;99.90
54461;DHT22;69977;49.414;11.010;2024-03-22T05:51:39;1.80;99.90
54461;DHT22;69977;49.414;11.010;2024-03-22T05:54:05;1.90;99.90
54461;DHT22;69977;49.414;11.010;2024-03-22T05:56:32;1.90;99.90
54461;DHT22;69977;49.414;11.010;2024-03-22T05:58:57;2.10;99.90
54461;DHT22;69977;49.414;11.010;2024-03-22T06:01:23;2.10;99.90
54461;DHT22;69977;49.414;11.010;2024-03-22T06:03:49;2.20;99.90
54461;DHT22;69977;49.414;11.010;2024-03-22T06:06:15;2.20;99.90
54461;DHT22;69977;49.414;11.010;2024-03-22T06:08:41;2.20;99.90
54461;DHT22;69977;49.414;11.010;2024-03-22T06:11:09;2.10;99.90
54461;DHT22;69977;49.414;11.010;2024-03-22T06:13:35;2.20;99.90
54461;DHT22;69977;49.414;11.010;2024-03-22T06:16:02;2.30;99.90
54461;DHT22;69977;49.414;11.010;2024-03-22T06:18:28;2.30;99.90
54461;DHT22;69977;49.414;11.010;2024-03-22T06:20:54;2.40;99.90
54461;DHT22;69977;49.414;11.010;2024-03-22T06:23:21;2.40;99.90
54461;DHT22;69977;49.414;11.010;2024-03-22T06:25:54;2.40;99.90
54461;DHT22;69977;49.414;11.010;2024-03-22T06:28:21;2.60;99.90
54461;DHT22;69977;49.414;11.010;2024-03-22T06:30:46;2.70;99.90
54461;DHT22;69977;49.414;11.010;2024-03-22T06:33:12;2.80;99.90
54461;DHT22;69977;49.414;11.010;2024-03-22T06:35:39;2.90;99.90
54461;DHT22;69977;49.414;11.010;2024-03-22T06:38:06;3.10;99.90
54461;DHT22;69977;49.414;11.010;2024-03-22T06:40:32;3.40;99.90
54461;DHT22;69977;49.414;11.010;2024-03-22T06:42:58;3.50;99.90
54461;DHT22;69977;49.414;11.010;2024-03-22T06:45:24;3.80;99.90
54461;DHT22;69977;49.414;11.010;2024-03-22T06:47:49;4.00;99.90
54461;DHT22;69977;49.414;11.010;2024-03-22T06:50:15;4.20;99.90
54461;DHT22;69977;49.414;11.010;2024-03-22T06:52:43;4.40;99.90
54461;DHT22;69977;49.414;11.010;2024-03-22T06:55:09;4.50;99.90
54461;DHT22;69977;49.414;11.010;2024-03-22T06:57:37;4.70;99.90
54461;DHT22;69977;49.414;11.010;2024-03-22T07:00:03;4.90;99.90
54461;DHT22;69977;49.414;11.010;2024-03-22T07:02:29;5.10;99.90
54461;DHT22;69977;49.414;11.010;2024-03-22T07:04:55;5.30;99.90
54461;DHT22;69977;49.414;11.010;2024-03-22T07:07:21;5.40;99.90
54461;DHT22;69977;49.414;11.010;2024-03-22T07:09:47;5.50;99.90
54461;DHT22;69977;49.414;11.010;2024-03-22T07:12:13;5.50;99.90
54461;DHT22;69977;49.414;11.010;2024-03-22T07:14:39;5.60;99.90
54461;DHT22;69977;49.414;11.010;2024-03-22T07:17:05;5.70;99.90
54461;DHT22;69977;49.414;11.010;2024-03-22T07:19:32;5.80;99.90
54461;DHT22;69977;49.414;11.010;2024-03-22T07:21:58;5.80;99.90
54461;DHT22;69977;49.414;11.010;2024-03-22T07:24:25;5.90;99.90
54461;DHT22;69977;49.414;11.010;2024-03-22T07:26:51;6.00;99.90
54461;DHT22;69977;49.414;11.010;2024-03-22T07:29:17;6.10;99.90
54461;DHT22;69977;49.414;11.010;2024-03-22T07:31:43;6.10;99.90
54461;DHT22;69977;49.414;11.010;2024-03-22T07:34:09;6.20;99.90
54461;DHT22;69977;49.414;11.010;2024-03-22T07:36:38;6.30;99.90
54461;DHT22;69977;49.414;11.010;2024-03-22T07:39:05;6.40;99.90
54461;DHT22;69977;49.414;11.010;2024-03-22T07:41:34;6.50;99.90
54461;DHT22;69977;49.414;11.010;2024-03-22T07:44:01;6.70;99.90
54461;DHT22;69977;49.414;11.010;2024-03-22T07:46:27;6.70;99.90
54461;DHT22;69977;49.414;11.010;2024-03-22T07:48:53;6.80;99.90
54461;DHT22;69977;49.414;11.010;2024-03-22T07:51:19;6.90;99.90
54461;DHT22;69977;49.414;11.010;2024-03-22T07:53:45;7.00;99.90
54461;DHT22;69977;49.414;11.010;2024-03-22T07:56:11;7.10;99.90
54461;DHT22;69977;49.414;11.010;2024-03-22T07:58:38;7.20;99.90
54461;DHT22;69977;49.414;11.010;2024-03-22T08:01:04;7.30;99.90
54461;DHT22;69977;49.414;11.010;2024-03-22T08:03:31;7.40;99.90
54461;DHT22;69977;49.414;11.010;2024-03-22T08:05:56;7.50;99.90
54461;DHT22;69977;49.414;11.010;2024-03-22T08:08:22;7.60;99.90
54461;DHT22;69977;49.414;11.010;2024-03-22T08:10:48;7.70;99.90
54461;DHT22;69977;49.414;11.010;2024-03-22T08:13:14;7.80;99.90
54461;DHT22;69977;49.414;11.010;2024-03-22T08:15:40;8.00;99.90
54461;DHT22;69977;49.414;11.010;2024-03-22T08:18:06;8.10;99.90
54461;DHT22;69977;49.414;11.010;2024-03-22T08:20:33;8.20;99.90
54461;DHT22;69977;49.414;11.010;2024-03-22T08:23:00;8.30;99.90
54461;DHT22;69977;49.414;11.010;2024-03-22T08:25:26;8.40;99.90
54461;DHT22;69977;49.414;11.010;2024-03-22T08:27:52;8.50;99.90
54461;DHT22;69977;49.414;11.010;2024-03-22T08:30:21;8.60;99.90
54461;DHT22;69977;49.414;11.010;2024-03-22T08:32:47;8.70;99.90
54461;DHT22;69977;49.414;11.010;2024-03-22T08:35:13;8.80;99.90
54461;DHT22;69977;49.414;11.010;2024-03-22T08:37:39;8.80;99.90
54461;DHT22;69977;49.414;11.010;2024-03-22T08:40:05;9.00;99.90
54461;DHT22;69977;49.414;11.010;2024-03-22T08:42:32;9.00;99.90
54461;DHT22;69977;49.414;11.010;2024-03-22T08:44:58;9.10;99.90
54461;DHT22;69977;49.414;11.010;2024-03-22T08:47:24;9.10;99.90
54461;DHT22;69977;49.414;11.010;2024-03-22T08:49:50;9.10;99.90
54461;DHT22;69977;49.414;11.010;2024-03-22T08:52:16;9.10;99.90
54461;DHT22;69977;49.414;11.010;2024-03-22T08:54:42;9.20;99.90
54461;DHT22;69977;49.414;11.010;2024-03-22T08:57:07;9.20;99.90
54461;DHT22;69977;49.414;11.010;2024-03-22T08:59:33;9.20;99.90
54461;DHT22;69977;49.414;11.010;2024-03-22T09:02:00;9.30;99.90
54461;DHT22;69977;49.414;11.010;2024-03-22T09:04:26;9.40;99.90
54461;DHT22;69977;49.414;11.010;2024-03-22T09:06:52;9.40;99.90
54461;DHT22;69977;49.414;11.010;2024-03-22T09:09:18;9.70;99.90
54461;DHT22;69977;49.414;11.010;2024-03-22T09:11:46;9.70;99.90
54461;DHT22;69977;49.414;11.010;2024-03-22T09:14:12;9.80;99.90
54461;DHT22;69977;49.414;11.010;2024-03-22T09:16:39;9.90;99.90
54461;DHT22;69977;49.414;11.010;2024-03-22T09:19:05;10.10;99.90
54461;DHT22;69977;49.414;11.010;2024-03-22T09:21:30;10.20;99.90
54461;DHT22;69977;49.414;11.010;2024-03-22T09:23:57;10.40;99.90
54461;DHT22;69977;49.414;11.010;2024-03-22T09:26:23;10.50;99.90
54461;DHT22;69977;49.414;11.010;2024-03-22T09:28:49;10.60;99.90
54461;DHT22;69977;49.414;11.010;2024-03-22T09:31:18;10.80;99.90
54461;DHT22;69977;49.414;11.010;2024-03-22T09:33:43;11.10;99.90
54461;DHT22;69977;49.414;11.010;2024-03-22T09:36:09;11.10;99.90
54461;DHT22;69977;49.414;11.010;2024-03-22T09:38:35;11.40;99.90
54461;DHT22;69977;49.414;11.010;2024-03-22T09:41:01;11.70;99.90
54461;DHT22;69977;49.414;11.010;2024-03-22T09:43:27;11.90;99.90
54461;DHT22;69977;49.414;11.010;2024-03-22T09:45:55;12.00;99.90
54461;DHT22;69977;49.414;11.010;2024-03-22T09:48:22;12.30;99.90
54461;DHT22;69977;49.414;11.010;2024-03-22T09:50:49;12.30;99.90
54461;DHT22;69977;49.414;11.010;2024-03-22T09:53:19;12.70;99.90
54461;DHT22;69977;49.414;11.010;2024-03-22T09:55:49;12.80;99.90
54461;DHT22;69977;49.414;11.010;2024-03-22T09:58:15;13.20;99.90
54461;DHT22;69977;49.414;11.010;2024-03-22T10:00:45;13.40;99.90
54461;DHT22;69977;49.414;11.010;2024-03-22T10:03:11;13.70;99.90
54461;DHT22;69977;49.414;11.010;2024-03-22T10:05:37;13.80;99.90
54461;DHT22;69977;49.414;11.010;2024-03-22T10:08:04;13.90;99.90
54461;DHT22;69977;49.414;11.010;2024-03-22T10:10:32;14.00;99.90
54461;DHT22;69977;49.414;11.010;2024-03-22T10:13:03;14.10;99.90
54461;DHT22;69977;49.414;11.010;2024-03-22T10:15:30;14.10;99.90
54461;DHT22;69977;49.414;11.010;2024-03-22T10:17:59;14.00;99.90
54461;DHT22;69977;49.414;11.010;2024-03-22T10:20:25;14.20;99.90
54461;DHT22;69977;49.414;11.010;2024-03-22T10:22:58;14.30;99.90
54461;DHT22;69977;49.414;11.010;2024-03-22T10:25:28;14.30;99.90
54461;DHT22;69977;49.414;11.010;2024-03-22T10:27:54;14.50;99.90
54461;DHT22;69977;49.414;11.010;2024-03-22T10:30:22;14.70;99.90
54461;DHT22;69977;49.414;11.010;2024-03-22T10:32:50;14.90;99.90
54461;DHT22;69977;49.414;11.010;2024-03-22T10:35:17;15.00;99.90
54461;DHT22;69977;49.414;11.010;2024-03-22T10:37:43;15.10;99.90
54461;DHT22;69977;49.414;11.010;2024-03-22T10:40:09;15.10;99.90
54461;DHT22;69977;49.414;11.010;2024-03-22T10:42:40;14.90;99.90
54461;DHT22;69977;49.414;11.010;2024-03-22T10:45:08;14.90;99.90
54461;DHT22;69977;49.414;11.010;2024-03-22T10:47:36;15.30;99.90
54461;DHT22;69977;49.414;11.010;2024-03-22T10:52:34;16.00;99.90
54461;DHT22;69977;49.414;11.010;2024-03-22T10:55:03;15.80;99.90
54461;DHT22;69977;49.414;11.010;2024-03-22T10:57:30;15.70;99.90
54461;DHT22;69977;49.414;11.010;2024-03-22T10:59:57;15.60;99.90
54461;DHT22;69977;49.414;11.010;2024-03-22T11:02:27;15.60;99.90
54461;DHT22;69977;49.414;11.010;2024-03-22T11:04:57;15.30;99.90
54461;DHT22;69977;49.414;11.010;2024-03-22T11:07:23;15.40;99.90
54461;DHT22;69977;49.414;11.010;2024-03-22T11:09:56;15.40;99.90
54461;DHT22;69977;49.414;11.010;2024-03-22T11:12:27;15.40;99.90
54461;DHT22;69977;49.414;11.010;2024-03-22T11:14:55;15.40;99.90
54461;DHT22;69977;49.414;11.010;2024-03-22T11:17:21;15.60;99.90
54461;DHT22;69977;49.414;11.010;2024-03-22T11:19:53;15.90;99.90
54461;DHT22;69977;49.414;11.010;2024-03-22T11:22:20;15.80;99.90
54461;DHT22;69977;49.414;11.010;2024-03-22T11:24:46;16.00;99.90
54461;DHT22;69977;49.414;11.010;2024-03-22T11:27:12;15.90;99.90
54461;DHT22;69977;49.414;11.010;2024-03-22T11:29:38;16.10;99.90
54461;DHT22;69977;49.414;11.010;2024-03-22T11:32:07;16.40;99.90
54461;DHT22;69977;49.414;11.010;2024-03-22T11:34:36;16.50;99.90
54461;DHT22;69977;49.414;11.010;2024-03-22T11:37:07;16.70;99.90
54461;DHT22;69977;49.414;11.010;2024-03-22T11:39:39;16.60;99.90
54461;DHT22;69977;49.414;11.010;2024-03-22T11:42:08;16.60;99.90
54461;DHT22;69977;49.414;11.010;2024-03-22T11:44:37;16.40;99.90
54461;DHT22;69977;49.414;11.010;2024-03-22T11:47:04;16.50;99.90
54461;DHT22;69977;49.414;11.010;2024-03-22T11:49:30;16.60;99.90
54461;DHT22;69977;49.414;11.010;2024-03-22T11:51:56;16.70;99.90
54461;DHT22;69977;49.414;11.010;2024-03-22T11:54:23;16.90;99.90
54461;DHT22;69977;49.414;11.010;2024-03-22T11:56:54;17.00;99.90
54461;DHT22;69977;49.414;11.010;2024-03-22T11:59:21;16.80;99.90
54461;DHT22;69977;49.414;11.010;2024-03-22T12:01:47;17.00;99.90
54461;DHT22;69977;49.414;11.010;2024-03-22T12:04:13;16.90;99.90
54461;DHT22;69977;49.414;11.010;2024-03-22T12:06:44;17.00;99.90
54461;DHT22;69977;49.414;11.010;2024-03-22T12:09:11;16.90;99.90
54461;DHT22;69977;49.414;11.010;2024-03-22T12:11:40;16.90;99.90
54461;DHT22;69977;49.414;11.010;2024-03-22T12:14:06;17.00;99.90
54461;DHT22;69977;49.414;11.010;2024-03-22T12:16:32;16.70;99.90
54461;DHT22;69977;49.414;11.010;2024-03-22T12:18:58;16.60;99.90
54461;DHT22;69977;49.414;11.010;2024-03-22T12:21:24;16.70;99.90
54461;DHT22;69977;49.414;11.010;2024-03-22T12:23:50;16.70;99.90
54461;DHT22;69977;49.414;11.010;2024-03-22T12:26:16;16.90;99.90
54461;DHT22;69977;49.414;11.010;2024-03-22T12:28:43;16.90;99.90
54461;DHT22;69977;49.414;11.010;2024-03-22T12:31:09;17.00;99.90
54461;DHT22;69977;49.414;11.010;2024-03-22T12:33:38;17.30;99.90
54461;DHT22;69977;49.414;11.010;2024-03-22T12:36:05;17.40;99.90
54461;DHT22;69977;49.414;11.010;2024-03-22T12:38:30;17.60;99.90
54461;DHT22;69977;49.414;11.010;2024-03-22T12:40:57;17.90;99.90
54461;DHT22;69977;49.414;11.010;2024-03-22T12:43:23;17.60;99.90
54461;DHT22;69977;49.414;11.010;2024-03-22T12:45:48;17.60;99.90
54461;DHT22;69977;49.414;11.010;2024-03-22T12:48:14;17.70;99.90
54461;DHT22;69977;49.414;11.010;2024-03-22T12:50:40;17.70;99.90
54461;DHT22;69977;49.414;11.010;2024-03-22T12:53:06;17.80;99.90
54461;DHT22;69977;49.414;11.010;2024-03-22T12:55:31;17.70;99.90
54461;DHT22;69977;49.414;11.010;2024-03-22T12:57:58;17.60;99.90
54461;DHT22;69977;49.414;11.010;2024-03-22T13:00:24;17.50;99.90
54461;DHT22;69977;49.414;11.010;2024-03-22T13:02:50;17.50;99.90
54461;DHT22;69977;49.414;11.010;2024-03-22T13:05:18;17.30;99.90
54461;DHT22;69977;49.414;11.010;2024-03-22T13:07:43;17.20;99.90
54461;DHT22;69977;49.414;11.010;2024-03-22T13:10:09;17.00;99.90
54461;DHT22;69977;49.414;11.010;2024-03-22T13:12:35;16.80;99.90
54461;DHT22;69977;49.414;11.010;2024-03-22T13:15:02;16.70;99.90
54461;DHT22;69977;49.414;11.010;2024-03-22T13:17:28;16.90;99.90
54461;DHT22;69977;49.414;11.010;2024-03-22T13:19:53;17.20;99.90
54461;DHT22;69977;49.414;11.010;2024-03-22T13:22:19;17.30;99.90
54461;DHT22;69977;49.414;11.010;2024-03-22T13:24:46;17.30;99.90
54461;DHT22;69977;49.414;11.010;2024-03-22T13:27:12;17.60;99.90
54461;DHT22;69977;49.414;11.010;2024-03-22T13:29:41;17.90;99.90
54461;DHT22;69977;49.414;11.010;2024-03-22T13:32:07;18.20;99.90
54461;DHT22;69977;49.414;11.010;2024-03-22T13:34:37;18.10;99.90
54461;DHT22;69977;49.414;11.010;2024-03-22T13:37:04;17.90;99.90
54461;DHT22;69977;49.414;11.010;2024-03-22T14:37:52;17.80;99.90
54461;DHT22;69977;49.414;11.010;2024-03-22T14:40:19;17.90;99.90
54461;DHT22;69977;49.414;11.010;2024-03-22T14:42:44;17.70;99.90
54461;DHT22;69977;49.414;11.010;2024-03-22T14:45:10;17.70;99.90
54461;DHT22;69977;49.414;11.010;2024-03-22T14:47:37;17.80;99.90
54461;DHT22;69977;49.414;11.010;2024-03-22T14:50:03;17.80;99.90
54461;DHT22;69977;49.414;11.010;2024-03-22T14:52:29;17.90;99.90
54461;DHT22;69977;49.414;11.010;2024-03-22T14:54:55;17.70;99.90
54461;DHT22;69977;49.414;11.010;2024-03-22T14:57:21;17.70;99.90
54461;DHT22;69977;49.414;11.010;2024-03-22T14:59:47;17.70;99.90
54461;DHT22;69977;49.414;11.010;2024-03-22T15:02:14;17.60;99.90
54461;DHT22;69977;49.414;11.010;2024-03-22T15:04:40;17.40;99.90
54461;DHT22;69977;49.414;11.010;2024-03-22T15:07:06;17.30;99.90
54461;DHT22;69977;49.414;11.010;2024-03-22T15:09:32;17.40;99.90
54461;DHT22;69977;49.414;11.010;2024-03-22T15:11:57;17.30;99.90
54461;DHT22;69977;49.414;11.010;2024-03-22T15:14:25;17.30;99.90
54461;DHT22;69977;49.414;11.010;2024-03-22T15:16:58;17.30;99.90
54461;DHT22;69977;49.414;11.010;2024-03-22T15:19:23;17.30;99.90
54461;DHT22;69977;49.414;11.010;2024-03-22T15:21:50;17.20;99.90
54461;DHT22;69977;49.414;11.010;2024-03-22T15:24:17;17.30;99.90
54461;DHT22;69977;49.414;11.010;2024-03-22T15:26:43;17.30;99.90
54461;DHT22;69977;49.414;11.010;2024-03-22T15:29:08;17.30;99.90
54461;DHT22;69977;49.414;11.010;2024-03-22T15:31:34;17.30;99.90
54461;DHT22;69977;49.414;11.010;2024-03-22T15:34:00;17.20;99.90
54461;DHT22;69977;49.414;11.010;2024-03-22T15:36:26;17.10;99.90
54461;DHT22;69977;49.414;11.010;2024-03-22T15:38:52;17.10;99.90
54461;DHT22;69977;49.414;11.010;2024-03-22T15:41:18;17.10;99.90
54461;DHT22;69977;49.414;11.010;2024-03-22T15:43:45;17.00;99.90
54461;DHT22;69977;49.414;11.010;2024-03-22T15:46:11;16.90;99.90
54461;DHT22;69977;49.414;11.010;2024-03-22T15:48:37;16.80;99.90
54461;DHT22;69977;49.414;11.010;2024-03-22T15:51:03;16.80;99.90
54461;DHT22;69977;49.414;11.010;2024-03-22T15:53:29;16.80;99.90
54461;DHT22;69977;49.414;11.010;2024-03-22T15:55:55;16.70;99.90
54461;DHT22;69977;49.414;11.010;2024-03-22T15:58:20;16.70;99.90
54461;DHT22;69977;49.414;11.010;2024-03-22T16:00:46;16.60;99.90
54461;DHT22;69977;49.414;11.010;2024-03-22T16:03:13;16.60;99.90
54461;DHT22;69977;49.414;11.010;2024-03-22T16:06:05;16.60;99.90
54461;DHT22;69977;49.414;11.010;2024-03-22T16:08:31;16.50;99.90
54461;DHT22;69977;49.414;11.010;2024-03-22T16:10:57;16.50;99.90
54461;DHT22;69977;49.414;11.010;2024-03-22T16:13:23;16.40;99.90
54461;DHT22;69977;49.414;11.010;2024-03-22T16:15:48;16.40;99.90
54461;DHT22;69977;49.414;11.010;2024-03-22T16:18:14;16.40;99.90
54461;DHT22;69977;49.414;11.010;2024-03-22T16:20:40;16.30;99.90
54461;DHT22;69977;49.414;11.010;2024-03-22T16:23:06;16.20;99.90